sensor_id;sensor_type;location;lat;lon;timestamp;pressure;altitude;pressure_sealevel;temperature;humidity
49473;BME280;67434;50.956;6.918;2023-03-20T00:01:28;101459.03;;;9.01;80.53
49473;BME280;67434;50.956;6.918;2023-03-20T00:03:55;101471.84;;;9.06;80.62
49473;BME280;67434;50.956;6.918;2023-03-20T00:06:25;101467.03;;;9.08;79.94
49473;BME280;67434;50.956;6.918;2023-03-20T00:08:52;101465.25;;;9.02;80.29
49473;BME280;67434;50.956;6.918;2023-03-20T00:14:13;101475.22;;;9.01;80.58
49473;BME280;67434;50.956;6.918;2023-03-20T00:16:44;101466.91;;;9.03;80.18
49473;BME280;67434;50.956;6.918;2023-03-20T00:19:25;101466.91;;;9.03;80.20
49473;BME280;67434;50.956;6.918;2023-03-20T00:21:52;101472.28;;;9.03;80.09
49473;BME280;67434;50.956;6.918;2023-03-20T00:24:18;101477.22;;;9.06;79.74
49473;BME280;67434;50.956;6.918;2023-03-20T00:26:44;101481.06;;;8.98;80.31
49473;BME280;67434;50.956;6.918;2023-03-20T00:29:30;101474.16;;;9.02;79.85
49473;BME280;67434;50.956;6.918;2023-03-20T00:31:57;101474.63;;;8.99;80.13
49473;BME280;67434;50.956;6.918;2023-03-20T00:34:27;101486.00;;;9.01;80.39
49473;BME280;67434;50.956;6.918;2023-03-20T00:36:54;101479.69;;;9.07;80.05
49473;BME280;67434;50.956;6.918;2023-03-20T00:39:20;101488.00;;;9.06;80.70
49473;BME280;67434;50.956;6.918;2023-03-20T00:44:21;101502.41;;;9.00;79.57
49473;BME280;67434;50.956;6.918;2023-03-20T00:46:53;101507.22;;;8.98;79.86
49473;BME280;67434;50.956;6.918;2023-03-20T00:49:25;101498.81;;;8.88;79.76
49473;BME280;67434;50.956;6.918;2023-03-20T00:51:51;101506.53;;;8.84;79.95
49473;BME280;67434;50.956;6.918;2023-03-20T00:54:16;101507.66;;;8.76;79.98
49473;BME280;67434;50.956;6.918;2023-03-20T00:56:45;101502.50;;;8.75;80.55
49473;BME280;67434;50.956;6.918;2023-03-20T00:59:19;101502.88;;;8.78;80.11
49473;BME280;67434;50.956;6.918;2023-03-20T01:01:47;101503.59;;;8.86;79.80
49473;BME280;67434;50.956;6.918;2023-03-20T01:04:16;101510.19;;;8.90;79.71
49473;BME280;67434;50.956;6.918;2023-03-20T01:06:42;101508.56;;;8.89;79.38
49473;BME280;67434;50.956;6.918;2023-03-20T01:09:08;101502.78;;;8.85;79.31
49473;BME280;67434;50.956;6.918;2023-03-20T01:11:34;101505.81;;;8.77;79.68
49473;BME280;67434;50.956;6.918;2023-03-20T01:14:00;101510.81;;;8.73;80.21
49473;BME280;67434;50.956;6.918;2023-03-20T01:16:26;101502.13;;;8.71;79.46
49473;BME280;67434;50.956;6.918;2023-03-20T01:18:51;101502.50;;;8.75;79.46
49473;BME280;67434;50.956;6.918;2023-03-20T01:21:18;101502.72;;;8.73;79.57
49473;BME280;67434;50.956;6.918;2023-03-20T01:23:44;101500.50;;;8.70;79.17
49473;BME280;67434;50.956;6.918;2023-03-20T01:28:44;101496.16;;;8.69;79.18
49473;BME280;67434;50.956;6.918;2023-03-20T01:31:10;101486.19;;;8.70;79.21
49473;BME280;67434;50.956;6.918;2023-03-20T01:33:35;101497.34;;;8.73;79.24
49473;BME280;67434;50.956;6.918;2023-03-20T01:36:01;101500.03;;;8.73;78.94
49473;BME280;67434;50.956;6.918;2023-03-20T01:38:26;101487.84;;;8.71;79.30
49473;BME280;67434;50.956;6.918;2023-03-20T01:40:55;101496.75;;;8.71;78.99
49473;BME280;67434;50.956;6.918;2023-03-20T01:43:24;101497.56;;;8.72;78.87
49473;BME280;67434;50.956;6.918;2023-03-20T01:48:22;101489.25;;;8.73;78.77
49473;BME280;67434;50.956;6.918;2023-03-20T01:50:50;101482.34;;;8.77;78.95
49473;BME280;67434;50.956;6.918;2023-03-20T01:53:26;101479.38;;;8.67;78.11
49473;BME280;67434;50.956;6.918;2023-03-20T01:55:55;101477.81;;;8.60;78.70
49473;BME280;67434;50.956;6.918;2023-03-20T01:58:27;101473.16;;;8.67;78.70
49473;BME280;67434;50.956;6.918;2023-03-20T02:00:55;101477.75;;;8.66;78.71
49473;BME280;67434;50.956;6.918;2023-03-20T02:03:22;101482.69;;;8.69;78.55
49473;BME280;67434;50.956;6.918;2023-03-20T02:05:48;101479.97;;;8.69;77.54
49473;BME280;67434;50.956;6.918;2023-03-20T02:08:19;101490.47;;;8.59;78.53
49473;BME280;67434;50.956;6.918;2023-03-20T02:10:47;101483.59;;;8.63;78.51
49473;BME280;67434;50.956;6.918;2023-03-20T02:13:14;101486.28;;;8.63;77.49
49473;BME280;67434;50.956;6.918;2023-03-20T02:18:21;101484.50;;;8.57;77.82
49473;BME280;67434;50.956;6.918;2023-03-20T02:21:21;101493.22;;;8.53;78.18
49473;BME280;67434;50.956;6.918;2023-03-20T02:26:49;101491.53;;;8.58;77.94
49473;BME280;67434;50.956;6.918;2023-03-20T02:41:19;101476.47;;;8.69;77.42
49473;BME280;67434;50.956;6.918;2023-03-20T02:44:08;101477.75;;;8.66;77.58
49473;BME280;67434;50.956;6.918;2023-03-20T02:47:13;101486.66;;;8.67;76.63
49473;BME280;67434;50.956;6.918;2023-03-20T02:52:27;101482.22;;;8.54;77.15
49473;BME280;67434;50.956;6.918;2023-03-20T03:00:23;101456.78;;;8.07;78.93
49473;BME280;67434;50.956;6.918;2023-03-20T03:05:33;101482.97;;;8.00;79.14
49473;BME280;67434;50.956;6.918;2023-03-20T03:08:02;101493.06;;;8.04;78.98
49473;BME280;67434;50.956;6.918;2023-03-20T03:10:38;101496.97;;;8.08;79.12
49473;BME280;67434;50.956;6.918;2023-03-20T03:13:12;101505.25;;;8.07;79.21
49473;BME280;67434;50.956;6.918;2023-03-20T03:15:42;101500.41;;;8.15;79.10
49473;BME280;67434;50.956;6.918;2023-03-20T03:18:14;101505.53;;;8.24;78.87
49473;BME280;67434;50.956;6.918;2023-03-20T03:20:42;101505.25;;;8.32;78.41
49473;BME280;67434;50.956;6.918;2023-03-20T03:23:17;101500.56;;;8.45;78.00
49473;BME280;67434;50.956;6.918;2023-03-20T03:25:49;101493.16;;;8.41;77.86
49473;BME280;67434;50.956;6.918;2023-03-20T03:28:28;101499.38;;;8.41;78.27
49473;BME280;67434;50.956;6.918;2023-03-20T03:30:56;101502.53;;;8.57;77.42
49473;BME280;67434;50.956;6.918;2023-03-20T03:33:27;101496.13;;;8.51;77.24
49473;BME280;67434;50.956;6.918;2023-03-20T03:38:57;101484.63;;;8.44;77.89
49473;BME280;67434;50.956;6.918;2023-03-20T03:44:02;101468.31;;;8.14;79.10
49473;BME280;67434;50.956;6.918;2023-03-20T03:46:52;101468.31;;;7.96;79.59
49473;BME280;67434;50.956;6.918;2023-03-20T03:49:25;101467.16;;;7.85;80.33
49473;BME280;67434;50.956;6.918;2023-03-20T03:51:55;101474.41;;;7.84;80.27
49473;BME280;67434;50.956;6.918;2023-03-20T03:54:37;101478.38;;;7.82;80.41
49473;BME280;67434;50.956;6.918;2023-03-20T03:57:06;101481.25;;;8.05;79.73
49473;BME280;67434;50.956;6.918;2023-03-20T03:59:38;101482.91;;;8.06;79.76
49473;BME280;67434;50.956;6.918;2023-03-20T04:02:06;101486.13;;;8.15;79.47
49473;BME280;67434;50.956;6.918;2023-03-20T04:04:35;101494.16;;;8.22;79.10
49473;BME280;67434;50.956;6.918;2023-03-20T04:07:01;101506.13;;;8.26;78.91
49473;BME280;67434;50.956;6.918;2023-03-20T04:09:27;101508.97;;;8.31;78.78
49473;BME280;67434;50.956;6.918;2023-03-20T04:11:53;101502.72;;;8.37;78.79
49473;BME280;67434;50.956;6.918;2023-03-20T04:14:19;101505.78;;;8.40;78.57
49473;BME280;67434;50.956;6.918;2023-03-20T04:16:44;101502.06;;;8.41;78.54
49473;BME280;67434;50.956;6.918;2023-03-20T04:19:10;101502.72;;;8.37;78.73
49473;BME280;67434;50.956;6.918;2023-03-20T04:21:36;101497.78;;;8.34;78.94
49473;BME280;67434;50.956;6.918;2023-03-20T04:24:02;101508.81;;;8.26;78.12
49473;BME280;67434;50.956;6.918;2023-03-20T04:26:27;101510.97;;;8.17;77.80
49473;BME280;67434;50.956;6.918;2023-03-20T04:29:11;101503.16;;;8.09;78.05
49473;BME280;67434;50.956;6.918;2023-03-20T04:31:37;101502.19;;;8.03;77.22
49473;BME280;67434;50.956;6.918;2023-03-20T04:34:03;101512.03;;;7.91;77.45
49473;BME280;67434;50.956;6.918;2023-03-20T04:36:28;101505.22;;;7.89;77.62
49473;BME280;67434;50.956;6.918;2023-03-20T04:38:53;101512.94;;;7.85;77.85
49473;BME280;67434;50.956;6.918;2023-03-20T04:41:18;101505.50;;;7.80;77.99
49473;BME280;67434;50.956;6.918;2023-03-20T04:43:45;101495.00;;;7.72;78.06
49473;BME280;67434;50.956;6.918;2023-03-20T04:46:10;101488.03;;;7.65;78.33
49473;BME280;67434;50.956;6.918;2023-03-20T04:48:36;101485.56;;;7.63;78.63
49473;BME280;67434;50.956;6.918;2023-03-20T04:51:01;101486.38;;;7.64;78.17
49473;BME280;67434;50.956;6.918;2023-03-20T04:53:26;101478.34;;;7.57;78.75
49473;BME280;67434;50.956;6.918;2023-03-20T04:55:52;101480.84;;;7.59;78.16
49473;BME280;67434;50.956;6.918;2023-03-20T04:58:17;101476.31;;;7.52;78.29
49473;BME280;67434;50.956;6.918;2023-03-20T05:00:43;101481.97;;;7.44;79.17
49473;BME280;67434;50.956;6.918;2023-03-20T05:03:08;101480.13;;;7.45;79.03
49473;BME280;67434;50.956;6.918;2023-03-20T05:05:34;101483.41;;;7.47;78.85
49473;BME280;67434;50.956;6.918;2023-03-20T05:08:03;101487.91;;;7.53;78.83
49473;BME280;67434;50.956;6.918;2023-03-20T05:10:29;101490.06;;;7.44;78.95
49473;BME280;67434;50.956;6.918;2023-03-20T05:12:55;101480.75;;;7.40;79.04
49473;BME280;67434;50.956;6.918;2023-03-20T05:15:20;101479.28;;;7.44;78.90
49473;BME280;67434;50.956;6.918;2023-03-20T05:17:46;101466.25;;;7.41;79.03
49473;BME280;67434;50.956;6.918;2023-03-20T05:20:11;101468.94;;;7.41;79.05
49473;BME280;67434;50.956;6.918;2023-03-20T05:22:37;101467.56;;;7.32;79.29
49473;BME280;67434;50.956;6.918;2023-03-20T05:25:02;101463.66;;;7.28;79.44
49473;BME280;67434;50.956;6.918;2023-03-20T05:27:28;101467.38;;;7.27;79.49
49473;BME280;67434;50.956;6.918;2023-03-20T05:29:53;101473.22;;;7.24;79.61
49473;BME280;67434;50.956;6.918;2023-03-20T05:32:18;101476.94;;;7.23;79.77
49473;BME280;67434;50.956;6.918;2023-03-20T05:34:43;101475.28;;;7.22;79.53
49473;BME280;67434;50.956;6.918;2023-03-20T05:37:09;101469.03;;;7.28;79.52
49473;BME280;67434;50.956;6.918;2023-03-20T05:39:34;101464.09;;;7.25;79.64
49473;BME280;67434;50.956;6.918;2023-03-20T05:41:59;101462.44;;;7.24;79.50
49473;BME280;67434;50.956;6.918;2023-03-20T05:44:25;101478.63;;;7.17;79.86
49473;BME280;67434;50.956;6.918;2023-03-20T05:46:50;101481.97;;;7.13;80.28
49473;BME280;67434;50.956;6.918;2023-03-20T05:49:16;101478.88;;;7.09;80.55
49473;BME280;67434;50.956;6.918;2023-03-20T05:51:41;101478.69;;;7.04;80.80
49473;BME280;67434;50.956;6.918;2023-03-20T05:54:06;101481.78;;;7.08;81.17
49473;BME280;67434;50.956;6.918;2023-03-20T05:56:32;101489.00;;;7.14;80.34
49473;BME280;67434;50.956;6.918;2023-03-20T05:58:57;101492.47;;;7.21;80.56
49473;BME280;67434;50.956;6.918;2023-03-20T06:01:22;101488.09;;;7.27;80.35
49473;BME280;67434;50.956;6.918;2023-03-20T06:03:48;101485.50;;;7.38;79.30
49473;BME280;67434;50.956;6.918;2023-03-20T06:06:14;101490.56;;;7.28;80.01
49473;BME280;67434;50.956;6.918;2023-03-20T06:08:40;101489.72;;;7.28;79.98
49473;BME280;67434;50.956;6.918;2023-03-20T06:11:06;101488.84;;;7.34;79.67
49473;BME280;67434;50.956;6.918;2023-03-20T06:13:31;101501.47;;;7.33;79.49
49473;BME280;67434;50.956;6.918;2023-03-20T06:16:00;101494.41;;;7.39;79.70
49473;BME280;67434;50.956;6.918;2023-03-20T06:18:25;101499.50;;;7.53;79.27
49473;BME280;67434;50.956;6.918;2023-03-20T06:20:55;101496.91;;;7.65;78.45
49473;BME280;67434;50.956;6.918;2023-03-20T06:23:21;101493.41;;;7.65;78.78
49473;BME280;67434;50.956;6.918;2023-03-20T06:25:46;101489.84;;;7.71;78.64
49473;BME280;67434;50.956;6.918;2023-03-20T06:28:12;101494.16;;;7.72;78.13
49473;BME280;67434;50.956;6.918;2023-03-20T06:30:38;101489.16;;;7.75;78.30
49473;BME280;67434;50.956;6.918;2023-03-20T06:33:05;101494.75;;;7.80;77.98
49473;BME280;67434;50.956;6.918;2023-03-20T06:35:30;101492.69;;;7.76;77.91
49473;BME280;67434;50.956;6.918;2023-03-20T06:37:57;101498.03;;;7.82;78.01
49473;BME280;67434;50.956;6.918;2023-03-20T06:40:23;101489.31;;;7.87;78.03
49473;BME280;67434;50.956;6.918;2023-03-20T06:42:49;101491.34;;;7.92;77.84
49473;BME280;67434;50.956;6.918;2023-03-20T06:45:16;101481.53;;;7.97;77.43
49473;BME280;67434;50.956;6.918;2023-03-20T06:47:44;101488.78;;;7.97;77.01
49473;BME280;67434;50.956;6.918;2023-03-20T06:50:11;101488.13;;;8.01;77.35
49473;BME280;67434;50.956;6.918;2023-03-20T06:52:37;101493.75;;;8.00;77.16
49473;BME280;67434;50.956;6.918;2023-03-20T06:55:05;101499.88;;;8.07;77.08
49473;BME280;67434;50.956;6.918;2023-03-20T06:57:30;101499.06;;;8.06;77.02
49473;BME280;67434;50.956;6.918;2023-03-20T07:00:10;101503.16;;;8.09;76.58
49473;BME280;67434;50.956;6.918;2023-03-20T07:02:38;101495.25;;;8.14;75.94
49473;BME280;67434;50.956;6.918;2023-03-20T07:05:04;101511.75;;;8.24;75.98
49473;BME280;67434;50.956;6.918;2023-03-20T07:07:29;101517.66;;;8.33;75.90
49473;BME280;67434;50.956;6.918;2023-03-20T07:09:54;101521.13;;;8.40;74.92
49473;BME280;67434;50.956;6.918;2023-03-20T07:12:20;101523.97;;;8.45;74.80
49473;BME280;67434;50.956;6.918;2023-03-20T07:14:45;101527.78;;;8.37;74.25
49473;BME280;67434;50.956;6.918;2023-03-20T07:17:11;101548.69;;;8.42;74.51
49473;BME280;67434;50.956;6.918;2023-03-20T07:19:37;101558.44;;;8.61;74.54
49473;BME280;67434;50.956;6.918;2023-03-20T07:22:08;101550.44;;;8.73;73.54
49473;BME280;67434;50.956;6.918;2023-03-20T07:24:36;101554.31;;;8.77;73.14
49473;BME280;67434;50.956;6.918;2023-03-20T07:27:01;101552.13;;;8.86;73.12
49473;BME280;67434;50.956;6.918;2023-03-20T07:29:27;101556.50;;;9.05;72.64
49473;BME280;67434;50.956;6.918;2023-03-20T07:31:52;101573.25;;;9.07;70.99
49473;BME280;67434;50.956;6.918;2023-03-20T07:34:17;101556.53;;;9.17;71.05
49473;BME280;67434;50.956;6.918;2023-03-20T07:36:43;101560.06;;;9.17;70.72
49473;BME280;67434;50.956;6.918;2023-03-20T07:39:09;101566.81;;;9.08;70.37
49473;BME280;67434;50.956;6.918;2023-03-20T07:41:35;101566.09;;;9.01;70.56
49473;BME280;67434;50.956;6.918;2023-03-20T07:44:00;101563.53;;;9.06;71.80
49473;BME280;67434;50.956;6.918;2023-03-20T07:46:26;101561.03;;;9.23;69.77
49473;BME280;67434;50.956;6.918;2023-03-20T07:48:51;101561.97;;;9.28;69.03
49473;BME280;67434;50.956;6.918;2023-03-20T07:51:17;101568.19;;;9.29;68.65
49473;BME280;67434;50.956;6.918;2023-03-20T07:53:42;101563.78;;;9.34;68.41
49473;BME280;67434;50.956;6.918;2023-03-20T07:56:08;101572.13;;;9.15;68.72
49473;BME280;67434;50.956;6.918;2023-03-20T07:58:33;101577.28;;;9.16;68.68
49473;BME280;67434;50.956;6.918;2023-03-20T08:00:59;101578.44;;;9.08;68.69
49473;BME280;67434;50.956;6.918;2023-03-20T08:03:25;101574.13;;;9.19;68.58
49473;BME280;67434;50.956;6.918;2023-03-20T08:05:50;101578.16;;;9.28;67.95
49473;BME280;67434;50.956;6.918;2023-03-20T08:08:15;101579.75;;;9.36;67.25
49473;BME280;67434;50.956;6.918;2023-03-20T08:10:41;101583.31;;;9.48;66.81
49473;BME280;67434;50.956;6.918;2023-03-20T08:13:06;101579.47;;;9.56;66.94
49473;BME280;67434;50.956;6.918;2023-03-20T08:15:31;101576.03;;;9.79;65.41
49473;BME280;67434;50.956;6.918;2023-03-20T08:17:57;101579.22;;;9.87;65.25
49473;BME280;67434;50.956;6.918;2023-03-20T08:20:23;101586.84;;;9.90;64.93
49473;BME280;67434;50.956;6.918;2023-03-20T08:22:48;101587.19;;;9.82;65.14
49473;BME280;67434;50.956;6.918;2023-03-20T08:25:14;101583.44;;;9.83;64.99
49473;BME280;67434;50.956;6.918;2023-03-20T08:27:40;101589.31;;;9.92;64.63
49473;BME280;67434;50.956;6.918;2023-03-20T08:30:06;101583.78;;;9.75;64.33
49473;BME280;67434;50.956;6.918;2023-03-20T08:32:33;101598.09;;;9.76;64.21
49473;BME280;67434;50.956;6.918;2023-03-20T08:34:58;101582.84;;;9.81;65.05
49473;BME280;67434;50.956;6.918;2023-03-20T08:37:24;101588.16;;;9.99;64.41
49473;BME280;67434;50.956;6.918;2023-03-20T08:39:49;101588.56;;;10.15;63.87
49473;BME280;67434;50.956;6.918;2023-03-20T08:42:14;101584.94;;;10.32;62.37
49473;BME280;67434;50.956;6.918;2023-03-20T08:44:40;101592.09;;;10.27;61.89
49473;BME280;67434;50.956;6.918;2023-03-20T08:47:05;101594.53;;;10.05;63.39
49473;BME280;67434;50.956;6.918;2023-03-20T08:49:32;101603.06;;;9.90;62.63
49473;BME280;67434;50.956;6.918;2023-03-20T08:51:59;101598.94;;;9.88;63.19
49473;BME280;67434;50.956;6.918;2023-03-20T08:54:24;101600.19;;;10.15;62.20
49473;BME280;67434;50.956;6.918;2023-03-20T08:56:49;101593.53;;;10.41;61.65
49473;BME280;67434;50.956;6.918;2023-03-20T08:59:15;101592.22;;;10.67;61.16
49473;BME280;67434;50.956;6.918;2023-03-20T09:01:40;101587.16;;;10.71;59.85
49473;BME280;67434;50.956;6.918;2023-03-20T09:04:06;101590.22;;;10.62;60.67
49473;BME280;67434;50.956;6.918;2023-03-20T09:06:35;101589.97;;;10.76;60.24
49473;BME280;67434;50.956;6.918;2023-03-20T09:09:00;101587.03;;;10.77;59.60
49473;BME280;67434;50.956;6.918;2023-03-20T09:11:26;101590.59;;;10.54;59.89
49473;BME280;67434;50.956;6.918;2023-03-20T09:13:51;101596.81;;;10.55;59.83
49473;BME280;67434;50.956;6.918;2023-03-20T09:16:17;101591.44;;;10.43;60.39
49473;BME280;67434;50.956;6.918;2023-03-20T09:18:42;101591.91;;;10.52;60.78
49473;BME280;67434;50.956;6.918;2023-03-20T09:21:07;101594.47;;;10.58;60.62
49473;BME280;67434;50.956;6.918;2023-03-20T09:23:33;101589.53;;;10.79;60.15
49473;BME280;67434;50.956;6.918;2023-03-20T09:25:58;101595.19;;;10.54;60.14
49473;BME280;67434;50.956;6.918;2023-03-20T09:28:24;101590.59;;;10.54;59.53
49473;BME280;67434;50.956;6.918;2023-03-20T09:30:55;101583.19;;;10.61;58.58
49473;BME280;67434;50.956;6.918;2023-03-20T09:33:20;101586.69;;;10.74;59.38
49473;BME280;67434;50.956;6.918;2023-03-20T09:35:46;101594.94;;;10.79;58.49
49473;BME280;67434;50.956;6.918;2023-03-20T09:38:11;101587.69;;;11.08;58.07
49473;BME280;67434;50.956;6.918;2023-03-20T09:40:56;101598.25;;;11.21;58.22
49473;BME280;67434;50.956;6.918;2023-03-20T09:43:36;101593.72;;;10.98;57.95
49473;BME280;67434;50.956;6.918;2023-03-20T09:48:58;101589.63;;;10.84;57.80
49473;BME280;67434;50.956;6.918;2023-03-20T09:51:41;101583.84;;;10.92;57.45
49473;BME280;67434;50.956;6.918;2023-03-20T09:54:21;101583.88;;;10.80;57.03
49473;BME280;67434;50.956;6.918;2023-03-20T09:56:49;101583.16;;;10.85;57.62
49473;BME280;67434;50.956;6.918;2023-03-20T09:59:16;101584.00;;;10.85;56.18
49473;BME280;67434;50.956;6.918;2023-03-20T10:04:11;101589.16;;;10.87;56.52
49473;BME280;67434;50.956;6.918;2023-03-20T10:06:37;101587.50;;;10.98;56.64
49473;BME280;67434;50.956;6.918;2023-03-20T10:09:15;101591.38;;;10.90;55.96
49473;BME280;67434;50.956;6.918;2023-03-20T10:14:56;101588.63;;;11.13;55.09
49473;BME280;67434;50.956;6.918;2023-03-20T10:21:13;101591.56;;;11.23;55.20
49473;BME280;67434;50.956;6.918;2023-03-20T10:23:34;101583.69;;;11.10;54.50
49473;BME280;67434;50.956;6.918;2023-03-20T10:26:11;101585.94;;;11.02;54.68
49473;BME280;67434;50.956;6.918;2023-03-20T10:34:23;101587.34;;;11.04;53.03
49473;BME280;67434;50.956;6.918;2023-03-20T10:37:22;101588.56;;;10.96;51.67
49473;BME280;67434;50.956;6.918;2023-03-20T10:39:53;101589.09;;;11.10;51.42
49473;BME280;67434;50.956;6.918;2023-03-20T10:42:29;101583.47;;;11.00;50.53
49473;BME280;67434;50.956;6.918;2023-03-20T10:45:01;101590.91;;;10.93;50.40
49473;BME280;67434;50.956;6.918;2023-03-20T10:47:32;101589.06;;;10.82;49.52
49473;BME280;67434;50.956;6.918;2023-03-20T10:50:10;101587.63;;;10.91;49.57
49473;BME280;67434;50.956;6.918;2023-03-20T10:52:41;101580.94;;;10.82;49.98
49473;BME280;67434;50.956;6.918;2023-03-20T10:55:19;101575.97;;;10.90;49.70
49473;BME280;67434;50.956;6.918;2023-03-20T10:57:50;101574.00;;;10.86;50.02
49473;BME280;67434;50.956;6.918;2023-03-20T11:00:23;101562.50;;;10.79;50.33
49473;BME280;67434;50.956;6.918;2023-03-20T11:02:52;101566.31;;;10.94;50.34
49473;BME280;67434;50.956;6.918;2023-03-20T11:05:33;101567.06;;;10.78;51.13
49473;BME280;67434;50.956;6.918;2023-03-20T11:08:05;101577.53;;;10.75;50.70
49473;BME280;67434;50.956;6.918;2023-03-20T11:10:33;101574.59;;;10.64;51.44
49473;BME280;67434;50.956;6.918;2023-03-20T11:13:12;101562.00;;;10.82;50.79
49473;BME280;67434;50.956;6.918;2023-03-20T11:15:38;101575.16;;;10.90;50.19
49473;BME280;67434;50.956;6.918;2023-03-20T11:18:06;101567.59;;;11.04;50.41
49473;BME280;67434;50.956;6.918;2023-03-20T11:20:48;101572.03;;;11.21;50.80
49473;BME280;67434;50.956;6.918;2023-03-20T11:23:17;101564.88;;;11.15;50.11
49473;BME280;67434;50.956;6.918;2023-03-20T11:25:56;101557.69;;;11.09;51.24
49473;BME280;67434;50.956;6.918;2023-03-20T11:28:55;101555.50;;;11.35;51.06
49473;BME280;67434;50.956;6.918;2023-03-20T11:31:39;101552.94;;;11.56;50.33
49473;BME280;67434;50.956;6.918;2023-03-20T11:37:00;101539.13;;;11.01;50.87
49473;BME280;67434;50.956;6.918;2023-03-20T11:39:28;101535.53;;;10.84;50.85
49473;BME280;67434;50.956;6.918;2023-03-20T11:41:57;101548.44;;;10.93;50.65
49473;BME280;67434;50.956;6.918;2023-03-20T11:44:31;101534.69;;;10.95;50.45
49473;BME280;67434;50.956;6.918;2023-03-20T11:47:03;101541.34;;;11.16;51.07
49473;BME280;67434;50.956;6.918;2023-03-20T11:49:33;101533.66;;;11.13;51.46
49473;BME280;67434;50.956;6.918;2023-03-20T11:52:12;101534.63;;;11.18;52.17
49473;BME280;67434;50.956;6.918;2023-03-20T11:54:45;101536.88;;;11.10;51.91
49473;BME280;67434;50.956;6.918;2023-03-20T11:57:29;101529.41;;;10.88;52.35
49473;BME280;67434;50.956;6.918;2023-03-20T11:59:55;101534.97;;;10.82;52.46
49473;BME280;67434;50.956;6.918;2023-03-20T12:02:22;101533.66;;;10.84;52.63
49473;BME280;67434;50.956;6.918;2023-03-20T12:04:48;101541.56;;;10.39;53.24
49473;BME280;67434;50.956;6.918;2023-03-20T12:07:27;101529.38;;;10.48;54.46
49473;BME280;67434;50.956;6.918;2023-03-20T12:10:09;101524.09;;;10.93;53.42
49473;BME280;67434;50.956;6.918;2023-03-20T12:12:47;101529.09;;;11.42;53.10
49473;BME280;67434;50.956;6.918;2023-03-20T12:15:23;101519.38;;;11.57;51.37
49473;BME280;67434;50.956;6.918;2023-03-20T12:17:54;101512.56;;;11.26;51.17
49473;BME280;67434;50.956;6.918;2023-03-20T12:23:12;101529.56;;;10.82;53.29
49473;BME280;67434;50.956;6.918;2023-03-20T12:25:49;101520.56;;;10.93;53.89
49473;BME280;67434;50.956;6.918;2023-03-20T12:31:16;101507.22;;;10.75;54.33
49473;BME280;67434;50.956;6.918;2023-03-20T12:36:36;101509.81;;;11.10;53.69
49473;BME280;67434;50.956;6.918;2023-03-20T12:39:36;101504.78;;;11.02;54.60
49473;BME280;67434;50.956;6.918;2023-03-20T12:42:12;101504.78;;;11.30;53.90
49473;BME280;67434;50.956;6.918;2023-03-20T12:44:47;101498.56;;;11.46;53.38
49473;BME280;67434;50.956;6.918;2023-03-20T12:50:32;101498.66;;;11.06;55.02
49473;BME280;67434;50.956;6.918;2023-03-20T12:58:40;101495.13;;;11.06;54.62
49473;BME280;67434;50.956;6.918;2023-03-20T13:01:15;101491.50;;;11.28;53.98
49473;BME280;67434;50.956;6.918;2023-03-20T13:06:42;101489.97;;;11.95;53.37
49473;BME280;67434;50.956;6.918;2023-03-20T13:12:31;101480.00;;;11.83;53.41
49473;BME280;67434;50.956;6.918;2023-03-20T13:20:28;101476.06;;;12.08;51.87
49473;BME280;67434;50.956;6.918;2023-03-20T13:23:18;101487.88;;;11.68;52.67
49473;BME280;67434;50.956;6.918;2023-03-20T13:29:07;101473.69;;;11.78;53.21
49473;BME280;67434;50.956;6.918;2023-03-20T13:37:22;101461.81;;;12.17;53.37
49473;BME280;67434;50.956;6.918;2023-03-20T13:42:36;101455.31;;;11.97;53.51
49473;BME280;67434;50.956;6.918;2023-03-20T13:45:34;101453.56;;;11.74;53.62
49473;BME280;67434;50.956;6.918;2023-03-20T13:50:49;101447.25;;;11.85;53.29
49473;BME280;67434;50.956;6.918;2023-03-20T13:53:54;101451.53;;;11.81;53.32
49473;BME280;67434;50.956;6.918;2023-03-20T14:04:19;101446.44;;;12.23;51.52
49473;BME280;67434;50.956;6.918;2023-03-20T14:06:55;101441.81;;;12.02;51.36
49473;BME280;67434;50.956;6.918;2023-03-20T14:09:30;101437.53;;;12.06;51.70
49473;BME280;67434;50.956;6.918;2023-03-20T14:12:08;101431.00;;;11.85;52.54
49473;BME280;67434;50.956;6.918;2023-03-20T14:17:19;101441.44;;;12.53;51.66
49473;BME280;67434;50.956;6.918;2023-03-20T14:19:46;101440.00;;;12.68;50.46
49473;BME280;67434;50.956;6.918;2023-03-20T14:22:17;101429.44;;;12.49;51.17
49473;BME280;67434;50.956;6.918;2023-03-20T14:25:04;101437.63;;;12.11;52.18
49473;BME280;67434;50.956;6.918;2023-03-20T14:27:35;101434.22;;;12.20;52.27
49473;BME280;67434;50.956;6.918;2023-03-20T14:35:43;101427.81;;;12.48;51.68
49473;BME280;67434;50.956;6.918;2023-03-20T14:38:32;101431.53;;;12.42;52.28
49473;BME280;67434;50.956;6.918;2023-03-20T14:41:21;101424.41;;;12.36;52.95
49473;BME280;67434;50.956;6.918;2023-03-20T14:49:30;101417.50;;;12.07;53.63
49473;BME280;67434;50.956;6.918;2023-03-20T14:52:19;101413.41;;;11.87;54.95
49473;BME280;67434;50.956;6.918;2023-03-20T14:54:54;101402.25;;;12.01;55.55
49473;BME280;67434;50.956;6.918;2023-03-20T14:57:31;101411.69;;;11.98;56.34
49473;BME280;67434;50.956;6.918;2023-03-20T14:59:57;101407.22;;;12.09;55.90
49473;BME280;67434;50.956;6.918;2023-03-20T15:02:28;101408.66;;;11.95;55.97
49473;BME280;67434;50.956;6.918;2023-03-20T15:04:55;101411.88;;;11.92;55.90
49473;BME280;67434;50.956;6.918;2023-03-20T15:07:26;101409.81;;;11.82;56.54
49473;BME280;67434;50.956;6.918;2023-03-20T15:09:54;101402.59;;;11.71;55.42
49473;BME280;67434;50.956;6.918;2023-03-20T15:12:29;101407.63;;;11.79;56.05
49473;BME280;67434;50.956;6.918;2023-03-20T15:15:07;101407.69;;;11.84;55.32
49473;BME280;67434;50.956;6.918;2023-03-20T15:17:39;101404.66;;;11.80;55.42
49473;BME280;67434;50.956;6.918;2023-03-20T15:22:46;101398.81;;;11.88;55.85